Terminal Aerodrome Forecast
Issued by NWS Nashville, TN

Home | Current Version | Previous Version | Text Only | Print | Product List | Glossary On
Versions: 1 2 3 4 5 6 7 8 9 10 11 12 13 14 15 16 17 18 19 20 21
855
FTUS44 KOHX 011127
TAFCSV
TAF
KCSV 011127Z 0112/0212 VRB03KT 6SM HZ FEW040
     FM011700 22007KT P6SM SCT035 BKN100
      TEMPO 0121/0201 5SM -TSRA OVC035CB
     FM020600 22005KT P6SM OVC020
      TEMPO 0209/0212 VRB02KT 5SM BR=

USA.gov is the U.S. government's official web portal to all federal, state and local government web resources and services.